createdAt,value
2024-02-22T00:02:42.938Z,7.68
2024-02-22T00:05:45.937Z,8.60
2024-02-22T00:08:48.812Z,8.20
2024-02-22T00:11:51.790Z,7.90
2024-02-22T00:14:54.653Z,8.20
2024-02-22T00:17:57.277Z,7.97
2024-02-22T00:21:00.075Z,7.93
2024-02-22T00:24:02.776Z,8.10
2024-02-22T00:27:05.726Z,8.38
2024-02-22T00:30:13.932Z,7.90
2024-02-22T00:33:16.559Z,7.65
2024-02-22T00:36:20.010Z,7.33
2024-02-22T00:39:22.832Z,7.60
2024-02-22T00:42:25.953Z,7.90
2024-02-22T00:45:29.085Z,7.78
2024-02-22T00:48:32.198Z,7.28
2024-02-22T00:51:35.358Z,7.60
2024-02-22T00:54:38.408Z,7.70
2024-02-22T00:57:41.549Z,7.53
2024-02-22T01:00:44.547Z,6.70
2024-02-22T01:03:49.835Z,6.85
2024-02-22T01:06:55.399Z,7.30
2024-02-22T01:09:59.099Z,7.03
2024-02-22T01:13:01.989Z,6.85
2024-02-22T01:16:04.902Z,7.00
2024-02-22T01:19:08.040Z,7.18
2024-02-22T01:22:12.379Z,6.50
2024-02-22T01:25:15.132Z,6.53
2024-02-22T01:28:17.985Z,6.15
2024-02-22T01:31:20.855Z,6.45
2024-02-22T01:34:23.698Z,6.80
2024-02-22T01:37:26.736Z,6.20
2024-02-22T01:40:29.746Z,6.72
2024-02-22T01:43:33.567Z,6.68
2024-02-22T01:46:36.560Z,6.30
2024-02-22T01:49:40.370Z,6.30
2024-02-22T01:52:44.172Z,6.00
2024-02-22T01:55:49.149Z,6.22
2024-02-22T01:58:52.351Z,6.05
2024-02-22T02:01:59.741Z,6.05
2024-02-22T02:05:02.656Z,6.20
2024-02-22T02:08:05.819Z,5.80
2024-02-22T02:11:09.970Z,6.28
2024-02-22T02:14:13.005Z,5.95
2024-02-22T02:17:15.734Z,5.30
2024-02-22T02:20:19.877Z,5.57
2024-02-22T02:23:34.494Z,5.83
2024-02-22T02:26:37.585Z,6.15
2024-02-22T02:29:40.388Z,5.65
2024-02-22T02:32:45.264Z,6.00
2024-02-22T02:35:48.274Z,5.38
2024-02-22T02:38:51.088Z,5.63
2024-02-22T02:41:54.782Z,4.85
2024-02-22T02:44:57.301Z,5.70
2024-02-22T02:48:00.455Z,5.00
2024-02-22T02:51:05.310Z,5.07
2024-02-22T02:54:08.192Z,5.63
2024-02-22T02:57:11.735Z,5.40
2024-02-22T03:00:17.352Z,5.55
2024-02-22T03:03:21.022Z,5.40
2024-02-22T03:06:23.734Z,5.25
2024-02-22T03:09:27.487Z,4.90
2024-02-22T03:12:31.842Z,5.07
2024-02-22T03:15:35.564Z,5.35
2024-02-22T03:18:39.573Z,5.05
2024-02-22T03:21:43.531Z,4.80
2024-02-22T03:24:49.260Z,5.40
2024-02-22T03:27:52.089Z,5.03
2024-02-22T03:30:55.309Z,4.90
2024-02-22T03:33:59.108Z,5.00
2024-02-22T03:37:04.686Z,5.07
2024-02-22T03:40:10.153Z,4.70
2024-02-22T03:43:13.679Z,5.03
2024-02-22T03:46:16.392Z,4.80
2024-02-22T03:49:19.044Z,5.00
2024-02-22T03:52:22.211Z,4.68
2024-02-22T03:55:25.960Z,5.23
2024-02-22T03:58:28.557Z,5.22
2024-02-22T04:01:31.799Z,4.75
2024-02-22T04:04:34.930Z,4.80
2024-02-22T04:07:38.173Z,5.00
2024-02-22T04:10:42.113Z,4.53
2024-02-22T04:13:47.279Z,4.68
2024-02-22T04:16:49.967Z,4.47
2024-02-22T04:19:54.139Z,4.38
2024-02-22T04:22:58.270Z,4.80
2024-02-22T04:26:02.111Z,4.83
2024-02-22T04:29:04.867Z,5.30
2024-02-22T04:32:08.919Z,4.70
2024-02-22T04:35:12.395Z,4.47
2024-02-22T04:38:15.778Z,4.25
2024-02-22T04:41:24.838Z,4.07
2024-02-22T04:44:27.448Z,4.60
2024-02-22T04:47:34.377Z,4.68
2024-02-22T04:50:37.770Z,4.68
2024-02-22T04:53:41.022Z,4.40
2024-02-22T04:56:43.860Z,4.47
2024-02-22T04:59:46.752Z,4.63
2024-02-22T05:02:50.637Z,4.10
2024-02-22T05:05:53.476Z,4.55
2024-02-22T05:08:56.777Z,4.22
2024-02-22T05:11:59.619Z,4.63
2024-02-22T05:15:03.007Z,4.30
2024-02-22T05:18:06.382Z,4.50
2024-02-22T05:21:11.103Z,4.35
2024-02-22T05:24:14.982Z,4.43
2024-02-22T05:27:17.861Z,4.00
2024-02-22T05:30:20.475Z,4.22
2024-02-22T05:33:23.873Z,4.50
2024-02-22T05:36:26.709Z,4.00
2024-02-22T05:39:29.280Z,4.05
2024-02-22T05:42:32.966Z,3.87
2024-02-22T05:45:47.168Z,4.32
2024-02-22T05:48:49.953Z,3.80
2024-02-22T05:51:52.541Z,3.80
2024-02-22T05:54:55.380Z,4.10
2024-02-22T05:57:58.864Z,3.83
2024-02-22T06:01:02.255Z,4.32
2024-02-22T06:04:07.171Z,3.80
2024-02-22T06:07:10.894Z,4.28
2024-02-22T06:10:14.077Z,3.72
2024-02-22T06:13:17.671Z,4.30
2024-02-22T06:16:20.535Z,3.50
2024-02-22T06:19:23.536Z,4.10
2024-02-22T06:22:27.033Z,3.70
2024-02-22T06:25:30.166Z,3.83
2024-02-22T06:28:35.262Z,4.00
2024-02-22T06:31:38.732Z,3.72
2024-02-22T06:34:42.939Z,4.10
2024-02-22T06:37:48.636Z,3.47
2024-02-22T06:40:52.342Z,3.67
2024-02-22T06:43:58.532Z,3.70
2024-02-22T06:47:01.419Z,3.55
2024-02-22T06:50:05.668Z,3.65
2024-02-22T06:53:12.122Z,3.88
2024-02-22T06:56:18.531Z,3.92
2024-02-22T06:59:22.038Z,4.00
2024-02-22T07:02:26.235Z,4.00
2024-02-22T07:05:38.770Z,3.65
2024-02-22T07:08:44.332Z,3.75
2024-02-22T07:11:49.146Z,3.80
2024-02-22T07:14:52.509Z,4.83
2024-02-22T07:17:56.279Z,4.40
2024-02-22T07:21:02.607Z,4.40
2024-02-22T07:24:06.304Z,4.75
2024-02-22T07:27:10.766Z,4.43
2024-02-22T07:30:20.040Z,4.30
2024-02-22T07:33:23.717Z,4.20
2024-02-22T07:36:27.246Z,4.18
2024-02-22T07:39:32.416Z,4.70
2024-02-22T07:42:35.676Z,4.30
2024-02-22T07:45:40.072Z,4.20
2024-02-22T07:48:44.259Z,4.40
2024-02-22T07:51:57.468Z,4.15
2024-02-22T07:55:02.924Z,4.10
2024-02-22T07:58:05.956Z,4.15
2024-02-22T08:01:09.040Z,4.37
2024-02-22T08:04:16.267Z,4.07
2024-02-22T08:07:19.110Z,4.32
2024-02-22T08:10:22.933Z,4.50
2024-02-22T08:13:27.323Z,3.92
2024-02-22T08:16:30.893Z,4.10
2024-02-22T08:19:37.389Z,4.05
2024-02-22T08:22:40.619Z,4.10
2024-02-22T08:25:44.863Z,3.92
2024-02-22T08:28:50.169Z,3.92
2024-02-22T08:31:57.499Z,4.03
2024-02-22T08:35:01.196Z,3.92
2024-02-22T08:38:04.676Z,4.07
2024-02-22T08:41:10.212Z,3.97
2024-02-22T08:44:17.818Z,4.05
2024-02-22T08:47:20.494Z,3.50
2024-02-22T08:50:23.228Z,3.72
2024-02-22T08:53:27.192Z,3.85
2024-02-22T08:56:31.048Z,3.85
2024-02-22T08:59:36.419Z,3.80
2024-02-22T09:02:41.149Z,3.80
2024-02-22T09:05:45.608Z,3.72
2024-02-22T09:08:49.935Z,4.30
2024-02-22T09:11:53.135Z,3.15
2024-02-22T09:14:55.865Z,3.78
2024-02-22T09:18:00.853Z,3.40
2024-02-22T09:21:06.250Z,3.60
2024-02-22T09:24:10.804Z,3.30
2024-02-22T09:27:15.670Z,3.42
2024-02-22T09:30:19.462Z,3.50
2024-02-22T09:33:25.601Z,3.67
2024-02-22T09:36:28.505Z,3.50
2024-02-22T09:39:32.024Z,3.30
2024-02-22T09:42:37.325Z,3.75
2024-02-22T09:45:40.837Z,3.70
2024-02-22T09:48:52.594Z,3.27
2024-02-22T09:51:55.760Z,3.95
2024-02-22T09:54:58.458Z,3.60
2024-02-22T09:58:05.286Z,3.90
2024-02-22T10:01:07.979Z,3.47
2024-02-22T10:04:20.486Z,3.67
2024-02-22T10:07:32.271Z,4.15
2024-02-22T10:10:36.909Z,3.55
2024-02-22T10:13:42.771Z,4.22
2024-02-22T10:16:47.146Z,3.78
2024-02-22T10:20:01.877Z,3.37
2024-02-22T10:23:09.198Z,3.65
2024-02-22T10:26:13.964Z,3.72
2024-02-22T10:29:20.284Z,3.55
2024-02-22T10:32:23.328Z,3.58
2024-02-22T10:35:31.225Z,3.60
2024-02-22T10:38:35.177Z,3.83
2024-02-22T10:41:40.947Z,3.72
2024-02-22T10:44:45.947Z,3.65
2024-02-22T10:47:54.386Z,3.53
2024-02-22T10:51:05.866Z,3.93
2024-02-22T10:54:13.202Z,4.90
2024-02-22T10:57:28.589Z,4.70
2024-02-22T11:00:33.541Z,4.30
2024-02-22T11:03:39.473Z,3.88
2024-02-22T11:06:45.407Z,4.00
2024-02-22T11:09:49.475Z,3.60
2024-02-22T11:12:52.606Z,3.58
2024-02-22T11:15:55.225Z,3.90
2024-02-22T11:19:05.964Z,3.65
2024-02-22T11:22:20.847Z,3.73
2024-02-22T11:25:29.388Z,3.65
2024-02-22T11:28:32.828Z,3.28
2024-02-22T11:31:38.081Z,3.85
2024-02-22T11:34:43.000Z,3.65
2024-02-22T11:37:57.777Z,3.50
2024-02-22T11:41:06.503Z,3.70
2024-02-22T11:44:13.026Z,3.50
2024-02-22T11:47:16.501Z,3.60
2024-02-22T11:50:21.765Z,3.00
2024-02-22T11:53:26.835Z,3.43
2024-02-22T11:56:30.915Z,3.50
2024-02-22T11:59:34.136Z,3.47
2024-02-22T12:02:39.694Z,3.85
2024-02-22T12:05:44.453Z,3.30
2024-02-22T12:08:48.293Z,3.20
2024-02-22T12:11:52.139Z,3.60
2024-02-22T12:15:00.549Z,3.40
2024-02-22T12:18:05.152Z,3.53
2024-02-22T12:21:17.209Z,3.60
2024-02-22T12:24:28.843Z,3.70
2024-02-22T12:27:32.670Z,3.53
2024-02-22T12:30:40.761Z,3.47
2024-02-22T12:33:43.536Z,3.75
2024-02-22T12:36:48.787Z,3.10
2024-02-22T12:39:51.512Z,3.10
2024-02-22T12:42:55.671Z,3.28
2024-02-22T12:45:58.605Z,3.40
2024-02-22T12:49:01.407Z,3.15
2024-02-22T12:52:06.727Z,3.42
2024-02-22T12:55:10.651Z,3.60
2024-02-22T12:58:15.813Z,3.25
2024-02-22T13:01:18.618Z,3.15
2024-02-22T13:04:21.848Z,3.50
2024-02-22T13:07:25.304Z,2.90
2024-02-22T13:10:28.356Z,3.20
2024-02-22T13:13:33.798Z,3.50
2024-02-22T13:16:38.432Z,3.55
2024-02-22T13:19:42.504Z,3.10
2024-02-22T13:22:45.900Z,3.03
2024-02-22T13:25:51.213Z,2.80
2024-02-22T13:28:54.028Z,3.30
2024-02-22T13:31:59.341Z,3.30
2024-02-22T13:35:02.333Z,3.05
2024-02-22T13:38:14.126Z,3.00
2024-02-22T13:41:16.841Z,3.13
2024-02-22T13:44:26.604Z,3.10
2024-02-22T13:47:33.430Z,2.80
2024-02-22T13:50:36.327Z,3.10
2024-02-22T13:53:39.068Z,2.80
2024-02-22T13:56:45.075Z,2.90
2024-02-22T13:59:47.724Z,3.08
2024-02-22T14:02:52.903Z,3.10
2024-02-22T14:05:57.444Z,2.92
2024-02-22T14:09:02.726Z,2.83
2024-02-22T14:12:06.627Z,3.03
2024-02-22T14:15:10.506Z,2.97
2024-02-22T14:18:15.235Z,2.88
2024-02-22T14:21:20.994Z,3.17
2024-02-22T14:24:23.834Z,3.17
2024-02-22T14:27:32.245Z,3.40
2024-02-22T14:30:35.076Z,4.80
2024-02-22T14:33:38.489Z,4.13
2024-02-22T14:36:42.237Z,4.47
2024-02-22T14:39:45.094Z,3.90
2024-02-22T14:42:47.874Z,3.90
2024-02-22T14:45:51.722Z,3.85
2024-02-22T14:48:55.441Z,4.00
2024-02-22T14:51:58.056Z,3.95
2024-02-22T14:55:00.888Z,3.88
2024-02-22T14:58:05.787Z,4.20
2024-02-22T15:01:08.414Z,3.65
2024-02-22T15:04:11.156Z,3.97
2024-02-22T15:07:14.193Z,3.75
2024-02-22T15:10:17.368Z,3.92
2024-02-22T15:13:20.221Z,3.40
2024-02-22T15:16:24.604Z,3.83
2024-02-22T15:19:27.317Z,3.70
2024-02-22T15:22:30.212Z,3.67
2024-02-22T15:25:33.693Z,3.85
2024-02-22T15:28:36.544Z,5.03
2024-02-22T15:31:39.697Z,4.60
2024-02-22T15:34:42.655Z,4.18
2024-02-22T15:37:46.656Z,4.50
2024-02-22T15:40:49.672Z,4.15
2024-02-22T15:43:55.822Z,3.93
2024-02-22T15:46:59.044Z,3.85
2024-02-22T15:50:04.255Z,3.85
2024-02-22T15:53:07.232Z,4.20
2024-02-22T15:56:10.025Z,3.58
2024-02-22T15:59:12.873Z,3.60
2024-02-22T16:02:15.518Z,3.38
2024-02-22T16:05:18.256Z,3.55
2024-02-22T16:08:22.014Z,3.72
2024-02-22T16:11:25.011Z,3.20
2024-02-22T16:14:28.222Z,3.00
2024-02-22T16:17:31.256Z,3.33
2024-02-22T16:20:35.928Z,3.38
2024-02-22T16:23:38.951Z,3.65
2024-02-22T16:26:44.206Z,3.50
2024-02-22T16:29:47.190Z,3.60
2024-02-22T16:32:50.295Z,3.80
2024-02-22T16:35:56.719Z,3.13
2024-02-22T16:39:06.750Z,3.15
2024-02-22T16:42:12.349Z,3.42
2024-02-22T16:45:15.159Z,3.40
2024-02-22T16:48:18.179Z,3.33
2024-02-22T16:51:21.242Z,3.03
2024-02-22T16:54:24.753Z,2.97
2024-02-22T16:57:27.930Z,3.55
2024-02-22T17:00:30.755Z,3.23
2024-02-22T17:03:33.727Z,3.33
2024-02-22T17:06:37.011Z,3.30
2024-02-22T17:09:40.189Z,3.58
2024-02-22T17:12:44.547Z,3.38
2024-02-22T17:15:49.339Z,3.27
2024-02-22T17:18:52.094Z,3.30
2024-02-22T17:21:55.955Z,3.80
2024-02-22T17:24:58.652Z,3.58
2024-02-22T17:28:01.364Z,3.50
2024-02-22T17:31:06.843Z,3.13
2024-02-22T17:34:09.814Z,3.63
2024-02-22T17:37:13.109Z,3.10
2024-02-22T17:40:15.774Z,3.10
2024-02-22T17:43:19.107Z,3.22
2024-02-22T17:46:24.748Z,3.10
2024-02-22T17:49:28.092Z,3.35
2024-02-22T17:52:30.766Z,3.65
2024-02-22T17:55:33.666Z,3.08
2024-02-22T17:58:42.440Z,3.40
2024-02-22T18:01:51.188Z,3.23
2024-02-22T18:04:54.130Z,3.03
2024-02-22T18:08:02.206Z,3.72
2024-02-22T18:11:05.667Z,3.28
2024-02-22T18:14:08.542Z,3.13
2024-02-22T18:17:12.929Z,4.03
2024-02-22T18:20:16.260Z,3.10
2024-02-22T18:23:19.713Z,3.15
2024-02-22T18:26:22.667Z,3.75
2024-02-22T18:29:29.035Z,3.22
2024-02-22T18:32:31.892Z,2.93
2024-02-22T18:35:34.687Z,3.60
2024-02-22T18:38:39.564Z,2.95
2024-02-22T18:41:42.908Z,3.38
2024-02-22T18:44:46.306Z,3.50
2024-02-22T18:47:49.160Z,3.30
2024-02-22T18:50:52.877Z,2.90
2024-02-22T18:53:56.442Z,3.08
2024-02-22T18:56:59.165Z,3.63
2024-02-22T19:00:04.922Z,3.22
2024-02-22T19:03:13.232Z,2.90
2024-02-22T19:06:17.057Z,3.15
2024-02-22T19:09:20.323Z,2.83
2024-02-22T19:12:23.576Z,3.45
2024-02-22T19:15:26.706Z,3.20
2024-02-22T19:18:30.390Z,2.93
2024-02-22T19:21:35.128Z,3.05
2024-02-22T19:24:39.085Z,2.90
2024-02-22T19:27:42.289Z,3.13
2024-02-22T19:30:45.859Z,3.10
2024-02-22T19:33:49.893Z,2.80
2024-02-22T19:36:53.663Z,3.10
2024-02-22T19:39:57.525Z,3.15
2024-02-22T19:43:00.998Z,3.17
2024-02-22T19:46:05.400Z,3.08
2024-02-22T19:49:09.189Z,2.83
2024-02-22T19:52:12.626Z,3.00
2024-02-22T19:55:18.095Z,2.90
2024-02-22T19:58:21.532Z,3.10
2024-02-22T20:01:27.735Z,3.10
2024-02-22T20:04:31.726Z,3.00
2024-02-22T20:07:36.534Z,2.85
2024-02-22T20:10:41.364Z,3.10
2024-02-22T20:13:44.892Z,3.00
2024-02-22T20:16:52.587Z,2.92
2024-02-22T20:19:57.031Z,3.07
2024-02-22T20:23:01.049Z,2.95
2024-02-22T20:26:05.183Z,3.17
2024-02-22T20:29:13.240Z,3.22
2024-02-22T20:32:17.045Z,3.15
2024-02-22T20:35:25.781Z,2.67
2024-02-22T20:38:30.322Z,2.85
2024-02-22T20:41:36.354Z,3.20
2024-02-22T20:44:41.448Z,3.38
2024-02-22T20:47:46.215Z,3.22
2024-02-22T20:50:49.912Z,3.00
2024-02-22T20:53:55.970Z,3.10
2024-02-22T20:56:59.141Z,3.08
2024-02-22T21:00:02.790Z,3.28
2024-02-22T21:03:09.670Z,3.05
2024-02-22T21:06:21.530Z,3.33
2024-02-22T21:09:26.717Z,3.05
2024-02-22T21:12:31.385Z,2.90
2024-02-22T21:15:34.263Z,2.88
2024-02-22T21:18:37.087Z,3.13
2024-02-22T21:21:39.784Z,3.33
2024-02-22T21:24:44.469Z,3.20
2024-02-22T21:27:47.478Z,2.95
2024-02-22T21:30:50.752Z,3.17
2024-02-22T21:33:53.505Z,3.53
2024-02-22T21:36:56.642Z,3.30
2024-02-22T21:40:00.938Z,3.35
2024-02-22T21:43:04.888Z,3.05
2024-02-22T21:46:07.860Z,3.20
2024-02-22T21:49:11.337Z,3.47
2024-02-22T21:52:14.169Z,3.13
2024-02-22T21:55:16.817Z,3.20
2024-02-22T21:58:19.768Z,2.83
2024-02-22T22:04:44.728Z,3.40
2024-02-22T22:07:48.009Z,2.93
2024-02-22T22:10:54.323Z,3.20
2024-02-22T22:13:57.737Z,3.20
2024-02-22T22:17:01.146Z,3.58
2024-02-22T22:20:06.711Z,3.40
2024-02-22T22:23:10.084Z,3.63
2024-02-22T22:26:14.589Z,3.38
2024-02-22T22:29:17.366Z,3.00
2024-02-22T22:32:22.173Z,3.38
2024-02-22T22:35:25.088Z,3.20
2024-02-22T22:38:29.286Z,3.20
2024-02-22T22:41:32.198Z,3.67
2024-02-22T22:44:36.688Z,3.53
2024-02-22T22:47:39.778Z,3.42
2024-02-22T22:50:42.521Z,3.00
2024-02-22T22:53:46.237Z,3.40
2024-02-22T22:56:51.979Z,3.30
2024-02-22T22:59:54.677Z,3.25
2024-02-22T23:02:59.758Z,3.50
2024-02-22T23:06:02.640Z,3.53
2024-02-22T23:09:05.529Z,3.33
2024-02-22T23:12:09.549Z,3.15
2024-02-22T23:15:12.196Z,3.10
2024-02-22T23:18:15.119Z,3.70
2024-02-22T23:21:18.490Z,3.40
2024-02-22T23:24:22.263Z,3.13
2024-02-22T23:27:25.006Z,3.33
2024-02-22T23:30:28.461Z,3.20
2024-02-22T23:33:32.143Z,3.42
2024-02-22T23:36:35.458Z,3.28
2024-02-22T23:39:38.257Z,3.07
2024-02-22T23:42:41.254Z,3.85
2024-02-22T23:45:44.990Z,3.20
2024-02-22T23:48:48.074Z,3.25
2024-02-22T23:51:50.750Z,3.30
2024-02-22T23:54:53.562Z,3.37
2024-02-22T23:57:56.639Z,3.33
